• Join FlightAware (Why Join?)
  • Login
  • US Flag 
07:50AM EDT


 

Airport Tracker/Info


-or-


 

Live Flight TrackerFlight Track Log ✈ EJA365 ✈ 21-Apr-2013 ✈ KBHM - KMRY

Flight Track Log - Related Links

Times and Time Zones

All times are in EDT time to prevent confusion due to time zone crossing. See the EJA365 flight status page for this flight to view local times or setup timezone preferences in your user account.

Time Position Orientation Groundspeed Altitude Reporting Facility
EDT Latitude Longitude Course Direction KTS MPH feet Rate Location/Type
11:43AM 33.5767 -86.7517 341° North 160 184 1,500  Level Atlanta Center
11:44AM 33.6283 -86.7731 341° North 177 204 4,600 2,940 Climbing Atlanta Center
11:46AM 33.6136 -86.9597 265° West 231 266 10,800 3,000 Climbing Atlanta Center
11:47AM 33.6069 -87.0642 266° West 266 306 13,600 9,780 Climbing Atlanta Center
11:49AM 33.5864 -87.3075 264° West 347 399 43,000 2,940 Climbing Memphis Center
11:50AM 33.5767 -87.4225 264° West 352 405 23,400 -4,980 Descending Memphis Center
11:52AM 33.6108 -87.6408 281° West 340 391 28,100 1,980 Climbing Memphis Center
11:53AM 33.6403 -87.7597 287° West 357 411 29,400 1,380 Climbing Memphis Center
11:54AM 33.6722 -87.8811 288° West 370 426 30,900 1,500 Climbing Memphis Center
11:55AM 33.7036 -88.0025 287° West 375 432 32,400 1,500 Climbing Memphis Center
11:56AM 33.7331 -88.1192 287° West 375 432 33,900 3,780 Climbing Memphis Center
11:57AM 33.7622 -88.2383 286° West 375 432 40,000 1,440 Climbing Memphis Center
11:58AM 33.7914 -88.3550 287° West 375 432 36,800 -1,140 Descending Memphis Center
11:59AM 33.8203 -88.4694 287° West 370 426 37,800 960 Climbing Memphis Center
12:00PM 33.8469 -88.5814 286° West 364 419 38,800 960 Climbing Memphis Center
12:01PM 33.8736 -88.6933 286° West 358 412 39,800 600 Climbing Memphis Center
12:02PM 33.9019 -88.8006 288° West 346 398 40,000 60 Climbing Memphis Center
12:03PM 33.9328 -88.9278 286° West 351 404 40,000  Level Memphis Center
12:04PM 33.9611 -89.0475 286° West 370 426 40,000  Level Memphis Center
12:05PM 33.9917 -89.1697 287° West 376 433 40,000  Level Memphis Center
12:06PM 34.0178 -89.2822 286° West 390 449 40,000  Level Memphis Center
12:07PM 34.0500 -89.4119 287° West 399 459 40,000  Level Memphis Center
12:08PM 34.0803 -89.5397 286° West 394 453 40,000  Level Memphis Center
12:09PM 34.1103 -89.6672 286° West 394 453 40,000  Level Memphis Center
12:10PM 34.1381 -89.7950 285° West 394 453 40,000  Level Memphis Center
12:11PM 34.1719 -89.9328 287° West 394 453 40,000  Level Memphis Center
12:12PM 34.1994 -90.0583 285° West 394 453 40,000  Level Memphis Center
12:13PM 34.2289 -90.1789 286° West 394 453 40,000  Level Memphis Center
12:14PM 34.2583 -90.3044 286° West 389 448 40,000  Level Memphis Center
12:15PM 34.2875 -90.4275 286° West 384 442 40,000  Level Memphis Center
12:16PM 34.3167 -90.5508 286° West 384 442 40,000  Level Memphis Center
12:17PM 34.3414 -90.6717 284° West 374 430 40,000  Level Memphis Center
12:18PM 34.3681 -90.7800 287° West 379 436 40,000  Level Memphis Center
12:19PM 34.3947 -90.9033 285° West 379 436 40,000  Level Memphis Center
12:20PM 34.4233 -91.0244 286° West 374 430 40,000  Level Memphis Center
12:21PM 34.4519 -91.1456 286° West 379 436 40,000  Level Memphis Center
12:22PM 34.4803 -91.2667 286° West 379 436 40,000  Level Memphis Center
12:23PM 34.5044 -91.3881 284° West 373 429 40,000  Level Memphis Center
12:24PM 34.5386 -91.5372 286° West 373 429 40,000  Level Memphis Center
12:25PM 34.5625 -91.6558 284° West 378 435 40,000  Level Memphis Center
12:26PM 34.5925 -91.7750 287° West 378 435 40,000  Level Memphis Center
12:27PM 34.6203 -91.8967 286° West 378 435 40,000  Level Memphis Center
12:28PM 34.6436 -92.0206 283° West 378 435 40,000  Level Memphis Center
12:29PM 34.6692 -92.1425 284° West 378 435 40,000  Level Memphis Center
12:30PM 34.6903 -92.2692 281° West 378 435 40,000  Level Memphis Center
12:31PM 34.7092 -92.3958 280° West 378 435 40,000  Level Memphis Center
12:32PM 34.7258 -92.5225 279° West 378 435 40,000  Level Memphis Center
12:33PM 34.7444 -92.6494 280° West 378 435 40,000  Level Memphis Center
12:34PM 34.7608 -92.7764 279° West 378 435 40,000  Level Memphis Center
12:35PM 34.7811 -92.9033 281° West 383 441 40,000  Level Memphis Center
12:36PM 34.7992 -93.0353 279° West 389 448 40,000  Level Memphis Center
12:37PM 34.8153 -93.1622 279° West 389 448 40,000  Level Memphis Center
12:38PM 34.8331 -93.2944 279° West 389 448 40,000  Level Memphis Center
12:39PM 34.8508 -93.4217 280° West 389 448 40,000  Level Memphis Center
12:40PM 34.8686 -93.5514 280° West 389 448 40,000  Level Memphis Center
12:41PM 34.8858 -93.6836 279° West 389 448 40,000  Level Memphis Center
12:42PM 34.9053 -93.8136 280° West 389 448 40,000  Level Memphis Center
12:43PM 34.9225 -93.9433 279° West 389 448 40,000  Level Memphis Center
12:44PM 34.9375 -94.0731 278° West 389 448 40,000  Level Memphis Center
12:45PM 34.9525 -94.2006 278° West 389 448 40,000  Level Memphis Center
12:46PM 34.9672 -94.3253 278° West 389 448 40,000  Level Memphis Center
12:47PM 34.9839 -94.4528 279° West 389 448 40,000  Level Memphis Center
12:48PM 34.9981 -94.5419 281° West 407 468 40,000  Level Fort Worth Center
12:49PM 35.0133 -94.6706 278° West 407 468 40,000  Level Fort Worth Center
12:50PM 35.0328 -94.7994 280° West 402 463 40,000  Level Fort Worth Center
12:51PM 35.0500 -94.9306 279° West 396 456 40,000  Level Fort Worth Center
12:52PM 35.0672 -95.0594 279° West 391 450 40,000  Level Fort Worth Center
12:53PM 35.0842 -95.1911 279° West 391 450 40,000  Level Fort Worth Center
12:54PM 35.1008 -95.3175 279° West 386 444 40,000 -540 Level Fort Worth Center
12:55PM 35.1178 -95.4489 279° West 386 444 39,000 -1,020 Descending Fort Worth Center
12:56PM 35.1342 -95.5806 279° West 391 450 38,000 -540 Descending Fort Worth Center
12:57PM 35.1486 -95.7097 278° West 391 450 38,000  Level Fort Worth Center
12:58PM 35.1650 -95.8417 279° West 391 450 38,000  Level Fort Worth Center
12:59PM 35.1747 -95.9583 276° West 391 450 38,000  Level Fort Worth Center
01:00PM 35.1908 -96.0900 279° West 391 450 38,000  Level Fort Worth Center
01:01PM 35.2044 -96.2169 278° West 391 450 38,000  Level Fort Worth Center
01:02PM 35.2203 -96.3489 278° West 391 450 38,000  Level Fort Worth Center
01:03PM 35.2339 -96.4783 277° West 391 450 38,000  Level Fort Worth Center
01:04PM 35.2494 -96.6078 278° West 391 450 38,000  Level Fort Worth Center
01:05PM 35.2625 -96.7372 277° West 391 450 38,000  Level Fort Worth Center
01:06PM 35.2778 -96.8642 278° West 386 444 38,000 120 Level Fort Worth Center
01:07PM 35.2908 -96.9914 277° West 386 444 38,300 360 Climbing Fort Worth Center
01:08PM 35.3036 -97.1211 277° West 386 444 38,800 480 Climbing Fort Worth Center
01:09PM 35.3228 -97.2633 279° West 397 457 39,300 540 Climbing Fort Worth Center
01:10PM 35.3417 -97.3933 280° West 392 451 39,900 300 Climbing Fort Worth Center
01:11PM 35.3500 -97.5256 274° West 387 445 40,000  Climbing Fort Worth Center
01:12PM 35.3622 -97.6581 276° West 392 451 40,000  Level Fort Worth Center
01:13PM 35.3806 -97.7828 280° West 387 445 40,000  Level Fort Worth Center
01:14PM 35.3969 -97.9075 279° West 387 445 40,000  Level Fort Worth Center
01:15PM 35.4131 -98.0325 279° West 382 440 40,000  Level Fort Worth Center
01:16PM 35.4311 -98.1600 280° West 382 440 40,000  Level Fort Worth Center
01:17PM 35.4469 -98.2850 279° West 377 434 40,000  Level Fort Worth Center
01:18PM 35.4628 -98.4100 279° West 377 434 40,000  Level Fort Worth Center
01:19PM 35.4783 -98.5325 279° West 372 428 40,000  Level Fort Worth Center
01:20PM 35.4939 -98.6553 279° West 372 428 40,000  Level Fort Worth Center
01:21PM 35.5072 -98.7650 279° West 372 428 40,000  Level Fort Worth Center
01:22PM 35.5225 -98.8878 279° West 372 428 40,000  Level Fort Worth Center
01:23PM 35.5397 -99.0106 280° West 372 428 40,000  Level Fort Worth Center
01:24PM 35.5528 -99.1331 277° West 372 428 40,000  Level Fort Worth Center
01:25PM 35.5678 -99.2533 279° West 372 428 40,000  Level Fort Worth Center
01:26PM 35.5847 -99.3764 280° West 372 428 40,000  Level Fort Worth Center
01:27PM 35.5994 -99.4967 279° West 366 421 40,000  Level Fort Worth Center
01:28PM 35.6219 -99.6897 278° West 356 410 40,000  Level Albuquerque Center
01:29PM 35.6367 -99.8128 278° West 360 414 40,000  Level Albuquerque Center
01:30PM 35.6508 -99.9347 278° West 359 413 40,000  Level Albuquerque Center
01:31PM 35.6647 -100.0567 278° West 360 414 40,000  Level Albuquerque Center
01:32PM 35.6789 -100.1800 278° West 362 417 40,000  Level Albuquerque Center
01:33PM 35.6939 -100.3028 279° West 361 415 40,000  Level Albuquerque Center
01:35PM 35.7061 -100.4264 277° West 363 418 40,000  Level Albuquerque Center
01:36PM 35.7197 -100.5514 278° West 366 421 40,000  Level Albuquerque Center
01:37PM 35.7358 -100.7014 278° West 367 422 40,000  Level Albuquerque Center
01:38PM 35.7503 -100.8267 278° West 368 423 40,000  Level Albuquerque Center
01:39PM 35.7639 -100.9592 277° West 364 419 40,000  Level Albuquerque Center
01:40PM 35.7769 -101.0817 278° West 363 418 40,000  Level Albuquerque Center
01:41PM 35.7886 -101.2053 277° West 365 420 40,000  Level Albuquerque Center
01:42PM 35.8119 -101.3272 283° West 368 423 40,000  Level Albuquerque Center
01:43PM 35.8422 -101.4461 287° West 367 422 40,000  Level Albuquerque Center
01:44PM 35.8775 -101.5886 287° West 365 420 40,000  Level Albuquerque Center
01:45PM 35.9072 -101.7094 287° West 368 423 40,000  Level Albuquerque Center
01:46PM 35.9358 -101.8317 286° West 370 426 40,000  Level Albuquerque Center
01:47PM 35.9653 -101.9519 287° West 371 427 40,000  Level Albuquerque Center
01:48PM 35.9947 -102.0719 287° West 369 425 40,000  Level Albuquerque Center
01:49PM 36.0303 -102.2172 287° West 371 427 40,000  Level Albuquerque Center
01:50PM 36.0586 -102.3386 286° West 370 426 40,000  Level Albuquerque Center
01:51PM 36.0869 -102.4589 286° West 368 423 40,000  Level Albuquerque Center
01:52PM 36.1161 -102.5797 287° West 368 423 40,000  Level Albuquerque Center
01:53PM 36.1436 -102.6997 286° West 366 421 40,000  Level Albuquerque Center
01:54PM 36.1722 -102.8200 286° West 365 420 40,000  Level Albuquerque Center
01:55PM 36.2017 -102.9472 286° West 365 420 40,000  Level Albuquerque Center
01:56PM 36.2347 -103.0892 286° West 364 419 40,000  Level Albuquerque Center
01:57PM 36.2628 -103.2122 286° West 367 422 40,000  Level Albuquerque Center
01:58PM 36.2928 -103.3367 287° West 372 428 40,000  Level Albuquerque Center
01:59PM 36.3197 -103.4592 285° West 368 423 40,000  Level Albuquerque Center
02:00PM 36.3486 -103.5817 286° West 368 423 40,000  Level Albuquerque Center
02:01PM 36.3758 -103.7047 285° West 369 425 40,000  Level Albuquerque Center
02:02PM 36.4033 -103.8272 286° West 366 421 40,000  Level Albuquerque Center
02:03PM 36.4356 -103.9703 286° West 367 422 40,000  Level Albuquerque Center
02:05PM 36.4625 -104.0936 285° West 367 422 40,000  Level Albuquerque Center
02:06PM 36.4894 -104.2144 286° West 364 419 40,000  Level Albuquerque Center
02:07PM 36.5169 -104.3381 286° West 366 421 40,000  Level Albuquerque Center
02:08PM 36.5433 -104.4619 285° West 369 425 40,000  Level Albuquerque Center
02:09PM 36.5706 -104.5872 285° West 371 427 40,000  Level Albuquerque Center
02:10PM 36.5981 -104.7092 286° West 368 423 40,000  Level Albuquerque Center
02:11PM 36.6294 -104.8547 285° West 370 426 40,000  Level Albuquerque Center
02:12PM 36.6558 -104.9794 285° West 370 426 40,000  Level Albuquerque Center
02:13PM 36.6822 -105.1033 285° West 369 425 40,000  Level Albuquerque Center
02:14PM 36.7106 -105.2353 285° West 367 422 40,000  Level Albuquerque Center
02:15PM 36.7347 -105.3528 284° West 365 420 40,000  Level Albuquerque Center
02:15PM 36.7458 -105.4128 283° West 364 419 40,000  Level Denver Center
02:16PM 36.7714 -105.5314 285° West 366 421 40,000  Level Denver Center
02:17PM 36.8000 -105.6708 284° West 372 428 40,000  Level Denver Center
02:18PM 36.8242 -105.7931 284° West 378 435 40,000  Level Denver Center
02:19PM 36.8553 -105.9339 285° West 377 434 40,000  Level Denver Center
02:20PM 36.8744 -106.0344 283° West 375 432 40,000  Level Denver Center
02:21PM 36.9078 -106.1958 285° West 379 436 40,000  Level Denver Center
02:23PM 36.9311 -106.3169 284° West 379 436 40,000  Level Denver Center
02:24PM 36.9586 -106.4594 284° West 377 434 40,000  Level Denver Center
02:25PM 36.9839 -106.5828 284° West 379 436 40,000  Level Denver Center
02:26PM 37.0139 -106.7281 285° West 386 444 40,000  Level Denver Center
02:27PM 37.0367 -106.8503 283° West 380 437 40,000  Level Denver Center
02:28PM 37.0617 -106.9739 284° West 384 442 40,000  Level Denver Center
02:29PM 37.0886 -107.1183 283° West 383 441 40,000  Level Denver Center
02:30PM 37.1122 -107.2403 284° West 380 437 40,000  Level Denver Center
02:31PM 37.1406 -107.3839 284° West 379 436 40,000  Level Denver Center
02:32PM 37.1606 -107.4867 284° West 383 441 40,000  Level Denver Center
02:33PM 37.1914 -107.6517 283° West 384 442 40,000  Level Denver Center
02:34PM 37.2142 -107.7753 283° West 381 438 40,000  Level Denver Center
02:35PM 37.2417 -107.9206 283° West 382 440 40,000  Level Denver Center
02:36PM 37.2656 -108.0469 283° West 387 445 40,000  Level Denver Center
02:37PM 37.2914 -108.1917 283° West 384 442 40,000  Level Denver Center
02:38PM 37.3139 -108.3164 283° West 383 441 40,000  Level Denver Center
02:39PM 37.3364 -108.4389 283° West 381 438 40,000  Level Denver Center
02:40PM 37.3622 -108.5831 283° West 379 436 40,000  Level Denver Center
02:41PM 37.3842 -108.7036 283° West 374 430 40,000  Level Denver Center
02:42PM 37.4086 -108.8442 282° West 369 425 40,000  Level Denver Center
02:43PM 37.4300 -108.9650 283° West 370 426 40,000  Level Denver Center
02:44PM 37.4553 -109.1069 283° West 373 429 40,000  Level Denver Center
02:45PM 37.4761 -109.2286 282° West 372 428 40,000  Level Denver Center
02:46PM 37.5014 -109.3700 283° West 372 428 40,000  Level Denver Center
02:47PM 37.5217 -109.4925 282° West 373 429 40,000  Level Denver Center
02:48PM 37.5464 -109.6375 282° West 379 436 40,000  Level Denver Center
02:49PM 37.5672 -109.7636 282° West 383 441 40,000  Level Denver Center
02:50PM 37.5883 -109.8872 282° West 380 437 40,000  Level Denver Center
02:51PM 37.6133 -110.0311 282° West 376 433 40,000  Level Denver Center
02:52PM 37.6331 -110.1564 281° West 381 438 40,000  Level Denver Center
02:53PM 37.6569 -110.3006 282° West 378 435 40,000  Level Denver Center
02:54PM 37.6775 -110.4250 282° West 378 435 40,000  Level Denver Center
02:55PM 37.6969 -110.5467 281° West 380 437 40,000  Level Denver Center
02:57PM 37.7211 -110.7022 281° West 376 433 40,000  Level Denver Center
02:58PM 37.7419 -110.8314 282° West 377 434 40,000  Level Denver Center
02:59PM 37.7622 -110.9619 281° West 378 435 40,000  Level Denver Center
03:00PM 37.7781 -111.2053 275° West 390 449 40,000  Level Salt Lake Center
03:01PM 37.7772 -111.3414 270° West 389 448 40,000  Level Salt Lake Center
03:02PM 37.7711 -111.4789 267° West 394 453 40,000  Level Salt Lake Center
03:04PM 37.7550 -111.6431 263° West 394 453 40,000  Level Salt Lake Center
03:05PM 37.7436 -111.7792 264° West 391 450 40,000  Level Salt Lake Center
03:06PM 37.7322 -111.9142 264° West 389 448 40,000  Level Salt Lake Center
03:07PM 37.7192 -112.0506 263° West 391 450 40,000  Level Salt Lake Center
03:08PM 37.7075 -112.1850 264° West 386 444 40,000  Level Salt Lake Center
03:09PM 37.7036 -112.3178 268° West 381 438 40,000  Level Salt Lake Center
03:10PM 37.7169 -112.4764 276° West 380 437 40,000  Level Salt Lake Center
03:11PM 37.7272 -112.6086 276° West 381 438 40,000  Level Salt Lake Center
03:12PM 37.7369 -112.7403 275° West 382 440 40,000  Level Salt Lake Center
03:13PM 37.7469 -112.8733 275° West 387 445 40,000  Level Salt Lake Center
03:14PM 37.7542 -112.9794 275° West 388 447 40,000  Level Salt Lake Center
03:15PM 37.7650 -113.1381 275° West 382 440 40,000  Level Salt Lake Center
03:16PM 37.7733 -113.2711 275° West 383 441 40,000  Level Salt Lake Center
03:17PM 37.7819 -113.4053 275° West 385 443 40,000  Level Salt Lake Center
03:18PM 37.7911 -113.5408 275° West 388 447 40,000  Level Salt Lake Center
03:19PM 37.7992 -113.6756 274° West 387 445 40,000  Level Salt Lake Center
03:20PM 37.8078 -113.8103 275° West 386 444 40,000  Level Salt Lake Center
03:21PM 37.8172 -113.9456 275° West 386 444 40,000  Level Salt Lake Center
03:22PM 37.8261 -114.1061 274° West 384 442 40,000  Level Salt Lake Center
03:23PM 37.8344 -114.2411 275° West 385 443 40,000  Level Salt Lake Center
03:24PM 37.8431 -114.3758 275° West 386 444 40,000  Level Salt Lake Center
03:26PM 37.8586 -114.6458 274° West 385 443 40,000  Level Salt Lake Center
03:26PM 37.8628 -114.6983 276° West 383 441 40,000  Level Los Angeles Center
03:27PM 37.8706 -114.8344 274° West 387 445 40,000  Level Los Angeles Center
03:28PM 37.8758 -114.9425 274° West 386 444 40,000  Level Salt Lake Center
03:29PM 37.8869 -115.0731 276° West 388 447 40,000  Level Salt Lake Center
03:30PM 37.8944 -115.2089 274° West 388 447 40,000  Level Salt Lake Center
03:31PM 37.9008 -115.3439 273° West 385 443 40,000  Level Salt Lake Center
03:32PM 37.9075 -115.4800 274° West 385 443 40,000  Level Salt Lake Center
03:33PM 37.9147 -115.6158 274° West 387 445 40,000  Level Salt Lake Center
03:34PM 37.9214 -115.7517 274° West 388 447 40,000  Level Salt Lake Center
03:35PM 37.9292 -115.9139 274° West 387 445 40,000  Level Salt Lake Center
03:36PM 37.9356 -116.0517 273° West 389 448 40,000  Level Salt Lake Center
03:37PM 37.9419 -116.1881 273° West 389 448 40,000  Level Oakland Center
03:38PM 37.9483 -116.3244 273° West 388 447 40,000  Level Oakland Center
03:39PM 37.9533 -116.4614 273° West 388 447 40,000  Level Salt Lake Center
03:40PM 37.9597 -116.5992 273° West 390 449 40,000  Level Salt Lake Center
03:41PM 37.9656 -116.7372 273° West 392 451 40,000  Level Salt Lake Center
03:42PM 37.9711 -116.8744 273° West 389 448 40,000  Level Salt Lake Center
03:43PM 37.9769 -117.0117 273° West 387 445 40,000  Level Salt Lake Center
03:44PM 37.9819 -117.1500 273° West 388 447 40,000  Level Oakland Center
03:45PM 37.9872 -117.2894 273° West 389 448 40,000  Level Oakland Center
03:46PM 37.9522 -117.4228 252° West 398 458 40,000  Level Oakland Center
03:47PM 37.9067 -117.5528 246° West 400 460 40,000  Level Oakland Center
03:48PM 37.8525 -117.7072 246° West 399 459 40,000  Level Oakland Center
03:50PM 37.8069 -117.8358 246° West 400 460 40,000 -660 Level Oakland Center
03:51PM 37.7611 -117.9650 246° West 403 464 38,700 -1,320 Descending Oakland Center
03:52PM 37.7144 -118.0964 246° West 408 470 37,300 -1,260 Descending Oakland Center
03:53PM 37.6692 -118.2272 246° West 406 467 36,200 -660 Descending Oakland Center
03:54PM 37.6197 -118.3617 245° Southwest 418 481 36,000 -120 Descending Oakland Center
03:56PM 37.5228 -118.6300 246° West 418 481 36,000  Level Oakland Center
03:57PM 37.4633 -118.7928 245° Southwest 426 490 36,000  Level Oakland Center
03:58PM 37.4142 -118.9217 244° Southwest 420 483 36,000 -240 Level Oakland Center
03:59PM 37.3669 -119.0583 247° West 425 489 35,600 -840 Descending Oakland Center
04:00PM 37.3414 -119.2122 258° West 455 524 34,300 -900 Descending Oakland Center
04:01PM 37.3083 -119.3544 254° West 431 496 33,800 -1,020 Descending Oakland Center
04:02PM 37.2772 -119.5000 255° West 432 497 32,300 -1,500 Descending Oakland Center
04:03PM 37.2328 -119.6375 248° West 432 497 30,800 -1,440 Descending Oakland Center
04:04PM 37.1739 -119.7686 241° Southwest 432 497 29,400 -1,500 Descending Oakland Center
04:05PM 37.1106 -119.9067 240° Southwest 444 511 27,800 -1,620 Descending Oakland Center
04:06PM 37.0439 -120.0578 241° Southwest 427 491 26,100 -1,680 Descending Oakland Center
04:07PM 36.9833 -120.1858 239° Southwest 413 475 24,500 -1,560 Descending Oakland Center
04:08PM 36.9294 -120.3078 241° Southwest 403 464 23,000 -1,500 Descending Oakland Center
04:09PM 36.8728 -120.4300 240° Southwest 407 468 21,500 -1,560 Descending Oakland Center
04:10PM 36.8169 -120.5533 241° Southwest 392 451 19,900 -1,500 Descending Oakland Center
04:11PM 36.7706 -120.6569 241° Southwest 382 440 18,500 -1,560 Descending Oakland Center
04:12PM 36.7108 -120.7950 242° Southwest 388 447 16,800 -1,560 Descending Oakland Center
04:13PM 36.6744 -120.9092 248° West 358 412 15,400 -1,200 Descending Oakland Center
04:14PM 36.6361 -121.0281 248° West 367 422 14,400 -1,080 Descending Oakland Center
04:15PM 36.5986 -121.1433 248° West 364 419 13,300 -1,500 Descending Oakland Center
04:16PM 36.5817 -121.2497 259° West 330 380 11,400 -2,160 Descending Oakland Center
04:17PM 36.5664 -121.3461 259° West 299 344 8,900 -2,460 Descending Oakland Center
04:18PM 36.5497 -121.4419 258° West 290 334 6,400 -1,980 Descending Oakland Center
04:19PM 36.5344 -121.5300 258° West 275 316 4,900 -1,080 Descending Oakland Center
04:20PM 36.5231 -121.6094 260° West 232 267 4,300 -420 Descending Oakland Center
04:21PM 36.5333 -121.6667 283° West 159 183 4,100 -420 Descending Northern Cal TRACON
04:22PM 36.5500 -121.7167 293° West 145 167 3,500 -600 Descending Northern Cal TRACON